sensor_id;sensor_type;location;lat;lon;timestamp;pressure;altitude;pressure_sealevel;temperature;humidity
50682;BME280;36779;52.168;20.878;2023-05-18T00:00:59;101223.33;;;7.82;68.15
50682;BME280;36779;52.168;20.878;2023-05-18T00:03:31;101222.40;;;7.77;68.09
50682;BME280;36779;52.168;20.878;2023-05-18T00:06:00;101220.70;;;7.74;68.10
50682;BME280;36779;52.168;20.878;2023-05-18T00:08:33;101220.33;;;7.72;68.00
50682;BME280;36779;52.168;20.878;2023-05-18T00:11:02;101223.11;;;7.71;67.91
50682;BME280;36779;52.168;20.878;2023-05-18T00:13:31;101226.14;;;7.68;67.81
50682;BME280;36779;52.168;20.878;2023-05-18T00:16:00;101226.17;;;7.66;67.83
50682;BME280;36779;52.168;20.878;2023-05-18T00:18:30;101222.95;;;7.64;67.89
50682;BME280;36779;52.168;20.878;2023-05-18T00:21:02;101222.58;;;7.62;67.87
50682;BME280;36779;52.168;20.878;2023-05-18T00:23:34;101225.40;;;7.60;67.88
50682;BME280;36779;52.168;20.878;2023-05-18T00:26:07;101227.15;;;7.58;67.84
50682;BME280;36779;52.168;20.878;2023-05-18T00:28:37;101228.71;;;7.57;68.02
50682;BME280;36779;52.168;20.878;2023-05-18T00:31:05;101227.78;;;7.54;67.91
50682;BME280;36779;52.168;20.878;2023-05-18T00:33:34;101232.09;;;7.54;67.90
50682;BME280;36779;52.168;20.878;2023-05-18T00:36:04;101237.39;;;7.54;67.89
50682;BME280;36779;52.168;20.878;2023-05-18T00:38:33;101238.95;;;7.54;67.97
50682;BME280;36779;52.168;20.878;2023-05-18T00:41:02;101244.69;;;7.55;67.94
50682;BME280;36779;52.168;20.878;2023-05-18T00:43:31;101245.21;;;7.55;67.87
50682;BME280;36779;52.168;20.878;2023-05-18T00:46:00;101243.39;;;7.54;67.80
50682;BME280;36779;52.168;20.878;2023-05-18T00:48:30;101242.94;;;7.53;67.90
50682;BME280;36779;52.168;20.878;2023-05-18T00:51:01;101240.90;;;7.50;67.76
50682;BME280;36779;52.168;20.878;2023-05-18T00:53:31;101244.27;;;7.48;67.73
50682;BME280;36779;52.168;20.878;2023-05-18T00:56:00;101247.88;;;7.44;67.82
50682;BME280;36779;52.168;20.878;2023-05-18T00:58:32;101251.38;;;7.43;67.76
50682;BME280;36779;52.168;20.878;2023-05-18T01:01:01;101257.45;;;7.42;67.70
50682;BME280;36779;52.168;20.878;2023-05-18T01:03:34;101253.52;;;7.42;67.88
50682;BME280;36779;52.168;20.878;2023-05-18T01:06:10;101251.93;;;7.44;67.76
50682;BME280;36779;52.168;20.878;2023-05-18T01:08:41;101252.36;;;7.46;67.82
50682;BME280;36779;52.168;20.878;2023-05-18T01:11:17;101255.30;;;7.47;67.80
50682;BME280;36779;52.168;20.878;2023-05-18T01:14:00;101255.86;;;7.46;67.81
50682;BME280;36779;52.168;20.878;2023-05-18T01:16:39;101260.52;;;7.45;67.84
50682;BME280;36779;52.168;20.878;2023-05-18T01:19:27;101264.60;;;7.43;67.71
50682;BME280;36779;52.168;20.878;2023-05-18T01:22:19;101266.56;;;7.43;67.79
50682;BME280;36779;52.168;20.878;2023-05-18T01:24:54;101265.83;;;7.41;67.75
50682;BME280;36779;52.168;20.878;2023-05-18T01:27:28;101267.13;;;7.38;67.78
50682;BME280;36779;52.168;20.878;2023-05-18T01:30:05;101261.10;;;7.34;67.84
50682;BME280;36779;52.168;20.878;2023-05-18T01:32:39;101263.98;;;7.30;67.64
50682;BME280;36779;52.168;20.878;2023-05-18T01:35:21;101267.47;;;7.29;67.78
50682;BME280;36779;52.168;20.878;2023-05-18T01:37:52;101272.33;;;7.28;67.74
50682;BME280;36779;52.168;20.878;2023-05-18T01:40:21;101275.38;;;7.29;67.73
50682;BME280;36779;52.168;20.878;2023-05-18T01:43:02;101275.68;;;7.30;67.70
50682;BME280;36779;52.168;20.878;2023-05-18T01:45:36;101272.70;;;7.27;67.52
50682;BME280;36779;52.168;20.878;2023-05-18T01:48:10;101275.88;;;7.25;67.60
50682;BME280;36779;52.168;20.878;2023-05-18T01:50:46;101280.10;;;7.25;67.68
50682;BME280;36779;52.168;20.878;2023-05-18T01:53:22;101280.27;;;7.23;67.67
50682;BME280;36779;52.168;20.878;2023-05-18T01:55:53;101283.30;;;7.21;67.59
50682;BME280;36779;52.168;20.878;2023-05-18T01:58:23;101285.76;;;7.19;67.72
50682;BME280;36779;52.168;20.878;2023-05-18T02:00:53;101289.12;;;7.19;67.85
50682;BME280;36779;52.168;20.878;2023-05-18T02:03:23;101290.16;;;7.21;67.91
50682;BME280;36779;52.168;20.878;2023-05-18T02:05:52;101293.19;;;7.19;67.75
50682;BME280;36779;52.168;20.878;2023-05-18T02:08:22;101292.42;;;7.18;67.73
50682;BME280;36779;52.168;20.878;2023-05-18T02:10:51;101291.92;;;7.12;67.66
50682;BME280;36779;52.168;20.878;2023-05-18T02:13:22;101291.26;;;7.05;67.53
50682;BME280;36779;52.168;20.878;2023-05-18T02:15:50;101290.21;;;7.00;67.58
50682;BME280;36779;52.168;20.878;2023-05-18T02:18:19;101289.69;;;6.95;67.50
50682;BME280;36779;52.168;20.878;2023-05-18T02:21:00;101290.67;;;6.94;67.64
50682;BME280;36779;52.168;20.878;2023-05-18T02:23:38;101293.32;;;7.01;67.84
50682;BME280;36779;52.168;20.878;2023-05-18T02:26:08;101299.95;;;7.07;67.87
50682;BME280;36779;52.168;20.878;2023-05-18T02:28:38;101298.52;;;7.07;67.91
50682;BME280;36779;52.168;20.878;2023-05-18T02:31:08;101296.69;;;7.07;67.95
50682;BME280;36779;52.168;20.878;2023-05-18T02:33:39;101296.98;;;7.06;67.86
50682;BME280;36779;52.168;20.878;2023-05-18T02:36:12;101295.59;;;6.94;67.65
50682;BME280;36779;52.168;20.878;2023-05-18T02:38:42;101298.86;;;6.84;67.45
50682;BME280;36779;52.168;20.878;2023-05-18T02:41:12;101301.50;;;6.72;67.51
50682;BME280;36779;52.168;20.878;2023-05-18T02:43:46;101300.72;;;6.64;67.52
50682;BME280;36779;52.168;20.878;2023-05-18T02:46:17;101303.11;;;6.58;67.56
50682;BME280;36779;52.168;20.878;2023-05-18T02:48:51;101302.77;;;6.55;67.61
50682;BME280;36779;52.168;20.878;2023-05-18T02:51:25;101304.55;;;6.53;67.64
50682;BME280;36779;52.168;20.878;2023-05-18T02:53:54;101308.27;;;6.52;67.81
50682;BME280;36779;52.168;20.878;2023-05-18T02:56:23;101310.86;;;6.53;67.79
50682;BME280;36779;52.168;20.878;2023-05-18T02:58:58;101317.08;;;6.55;67.83
50682;BME280;36779;52.168;20.878;2023-05-18T03:01:35;101317.39;;;6.58;67.83
50682;BME280;36779;52.168;20.878;2023-05-18T03:04:05;101320.45;;;6.57;67.75
50682;BME280;36779;52.168;20.878;2023-05-18T03:06:35;101327.21;;;6.52;67.71
50682;BME280;36779;52.168;20.878;2023-05-18T03:09:05;101328.25;;;6.47;67.73
50682;BME280;36779;52.168;20.878;2023-05-18T03:11:40;101329.44;;;6.43;67.64
50682;BME280;36779;52.168;20.878;2023-05-18T03:14:13;101328.92;;;6.41;67.75
50682;BME280;36779;52.168;20.878;2023-05-18T03:16:41;101327.70;;;6.38;67.80
50682;BME280;36779;52.168;20.878;2023-05-18T03:19:13;101333.48;;;6.33;67.85
50682;BME280;36779;52.168;20.878;2023-05-18T03:21:44;101340.67;;;6.32;67.81
50682;BME280;36779;52.168;20.878;2023-05-18T03:24:13;101340.27;;;6.32;67.84
50682;BME280;36779;52.168;20.878;2023-05-18T03:26:45;101337.56;;;6.33;67.86
50682;BME280;36779;52.168;20.878;2023-05-18T03:29:16;101340.98;;;6.34;67.84
50682;BME280;36779;52.168;20.878;2023-05-18T03:31:46;101344.04;;;6.36;67.83
50682;BME280;36779;52.168;20.878;2023-05-18T03:34:18;101344.71;;;6.42;68.06
50682;BME280;36779;52.168;20.878;2023-05-18T03:36:47;101340.88;;;6.46;67.95
50682;BME280;36779;52.168;20.878;2023-05-18T03:39:16;101345.52;;;6.50;67.99
50682;BME280;36779;52.168;20.878;2023-05-18T03:41:45;101348.98;;;6.54;68.03
50682;BME280;36779;52.168;20.878;2023-05-18T03:44:15;101350.87;;;6.54;67.93
50682;BME280;36779;52.168;20.878;2023-05-18T03:46:44;101353.13;;;6.55;67.95
50682;BME280;36779;52.168;20.878;2023-05-18T03:49:13;101352.64;;;6.52;68.02
50682;BME280;36779;52.168;20.878;2023-05-18T03:51:43;101352.81;;;6.50;68.02
50682;BME280;36779;52.168;20.878;2023-05-18T03:54:12;101359.76;;;6.46;67.95
50682;BME280;36779;52.168;20.878;2023-05-18T03:56:41;101358.91;;;6.46;68.01
50682;BME280;36779;52.168;20.878;2023-05-18T03:59:13;101362.73;;;6.46;68.04
50682;BME280;36779;52.168;20.878;2023-05-18T04:01:44;101362.02;;;6.47;67.96
50682;BME280;36779;52.168;20.878;2023-05-18T04:04:14;101363.09;;;6.47;68.05
50682;BME280;36779;52.168;20.878;2023-05-18T04:06:45;101365.73;;;6.49;68.02
50682;BME280;36779;52.168;20.878;2023-05-18T04:09:20;101373.58;;;6.53;68.10
50682;BME280;36779;52.168;20.878;2023-05-18T04:11:50;101377.71;;;6.57;68.05
50682;BME280;36779;52.168;20.878;2023-05-18T04:14:20;101379.16;;;6.58;68.19
50682;BME280;36779;52.168;20.878;2023-05-18T04:16:51;101386.30;;;6.60;68.13
50682;BME280;36779;52.168;20.878;2023-05-18T04:19:20;101382.91;;;6.60;68.08
50682;BME280;36779;52.168;20.878;2023-05-18T04:21:49;101389.88;;;6.62;68.13
50682;BME280;36779;52.168;20.878;2023-05-18T04:24:20;101389.88;;;6.64;68.25
50682;BME280;36779;52.168;20.878;2023-05-18T04:26:49;101391.38;;;6.68;68.06
50682;BME280;36779;52.168;20.878;2023-05-18T04:29:18;101389.60;;;6.73;68.25
50682;BME280;36779;52.168;20.878;2023-05-18T04:31:48;101392.82;;;6.77;68.13
50682;BME280;36779;52.168;20.878;2023-05-18T04:34:17;101395.37;;;6.81;68.21
50682;BME280;36779;52.168;20.878;2023-05-18T04:36:47;101396.33;;;6.89;68.28
50682;BME280;36779;52.168;20.878;2023-05-18T04:39:17;101395.73;;;6.93;68.31
50682;BME280;36779;52.168;20.878;2023-05-18T04:41:46;101397.41;;;6.94;68.21
50682;BME280;36779;52.168;20.878;2023-05-18T04:44:16;101399.27;;;6.97;68.24
50682;BME280;36779;52.168;20.878;2023-05-18T04:46:45;101398.63;;;6.99;68.35
50682;BME280;36779;52.168;20.878;2023-05-18T04:49:14;101398.66;;;7.01;68.28
50682;BME280;36779;52.168;20.878;2023-05-18T04:51:43;101399.86;;;7.06;68.40
50682;BME280;36779;52.168;20.878;2023-05-18T04:54:14;101402.46;;;7.12;68.33
50682;BME280;36779;52.168;20.878;2023-05-18T04:56:43;101406.39;;;7.16;68.29
50682;BME280;36779;52.168;20.878;2023-05-18T04:59:15;101406.39;;;7.20;68.22
50682;BME280;36779;52.168;20.878;2023-05-18T05:01:44;101403.73;;;7.22;68.20
50682;BME280;36779;52.168;20.878;2023-05-18T05:04:14;101409.27;;;7.27;68.21
50682;BME280;36779;52.168;20.878;2023-05-18T05:06:46;101410.21;;;7.28;68.20
50682;BME280;36779;52.168;20.878;2023-05-18T05:09:17;101411.43;;;7.31;68.22
50682;BME280;36779;52.168;20.878;2023-05-18T05:11:46;101412.25;;;7.36;68.44
50682;BME280;36779;52.168;20.878;2023-05-18T05:14:15;101414.06;;;7.43;68.39
50682;BME280;36779;52.168;20.878;2023-05-18T05:16:44;101417.19;;;7.48;68.22
50682;BME280;36779;52.168;20.878;2023-05-18T05:19:18;101419.52;;;7.55;68.23
50682;BME280;36779;52.168;20.878;2023-05-18T05:21:48;101423.80;;;7.59;68.36
50682;BME280;36779;52.168;20.878;2023-05-18T05:24:17;101424.30;;;7.62;68.28
50682;BME280;36779;52.168;20.878;2023-05-18T05:26:48;101421.50;;;7.66;68.32
50682;BME280;36779;52.168;20.878;2023-05-18T05:29:17;101417.83;;;7.70;68.32
50682;BME280;36779;52.168;20.878;2023-05-18T05:31:47;101421.83;;;7.73;68.29
50682;BME280;36779;52.168;20.878;2023-05-18T05:34:16;101422.25;;;7.79;68.34
50682;BME280;36779;52.168;20.878;2023-05-18T05:36:45;101427.13;;;7.89;68.40
50682;BME280;36779;52.168;20.878;2023-05-18T05:39:14;101428.64;;;7.99;68.30
50682;BME280;36779;52.168;20.878;2023-05-18T05:41:43;101428.84;;;8.06;68.40
50682;BME280;36779;52.168;20.878;2023-05-18T05:44:15;101430.73;;;8.09;68.28
50682;BME280;36779;52.168;20.878;2023-05-18T05:46:46;101433.95;;;8.11;68.16
50682;BME280;36779;52.168;20.878;2023-05-18T05:49:17;101432.23;;;8.14;68.37
50682;BME280;36779;52.168;20.878;2023-05-18T05:51:45;101437.18;;;8.19;68.27
50682;BME280;36779;52.168;20.878;2023-05-18T05:54:16;101437.84;;;8.24;68.20
50682;BME280;36779;52.168;20.878;2023-05-18T05:56:45;101436.38;;;8.34;68.28
50682;BME280;36779;52.168;20.878;2023-05-18T05:59:16;101430.86;;;8.39;68.22
50682;BME280;36779;52.168;20.878;2023-05-18T06:01:45;101431.14;;;8.46;68.32
50682;BME280;36779;52.168;20.878;2023-05-18T06:04:16;101428.39;;;8.56;68.28
50682;BME280;36779;52.168;20.878;2023-05-18T06:06:45;101430.49;;;8.65;68.39
50682;BME280;36779;52.168;20.878;2023-05-18T06:09:16;101433.69;;;8.74;68.33
50682;BME280;36779;52.168;20.878;2023-05-18T06:11:45;101436.10;;;8.84;68.27
50682;BME280;36779;52.168;20.878;2023-05-18T06:14:15;101443.12;;;8.91;68.27
50682;BME280;36779;52.168;20.878;2023-05-18T06:16:45;101441.95;;;8.97;68.08
50682;BME280;36779;52.168;20.878;2023-05-18T06:19:14;101444.55;;;9.06;68.22
50682;BME280;36779;52.168;20.878;2023-05-18T06:21:43;101444.02;;;9.14;68.12
50682;BME280;36779;52.168;20.878;2023-05-18T06:24:14;101442.96;;;9.18;67.99
50682;BME280;36779;52.168;20.878;2023-05-18T06:27:00;101442.73;;;9.28;68.08
50682;BME280;36779;52.168;20.878;2023-05-18T06:29:51;101442.62;;;9.33;67.96
50682;BME280;36779;52.168;20.878;2023-05-18T06:32:43;101444.50;;;9.34;67.83
50682;BME280;36779;52.168;20.878;2023-05-18T06:35:14;101444.45;;;9.39;67.94
50682;BME280;36779;52.168;20.878;2023-05-18T06:37:43;101446.14;;;9.47;67.94
50682;BME280;36779;52.168;20.878;2023-05-18T06:40:20;101445.50;;;9.56;67.99
50682;BME280;36779;52.168;20.878;2023-05-18T06:42:50;101448.42;;;9.66;67.83
50682;BME280;36779;52.168;20.878;2023-05-18T06:45:39;101445.88;;;9.75;67.83
50682;BME280;36779;52.168;20.878;2023-05-18T06:48:16;101452.77;;;9.81;67.83
50682;BME280;36779;52.168;20.878;2023-05-18T06:50:49;101453.98;;;9.84;67.75
50682;BME280;36779;52.168;20.878;2023-05-18T06:53:21;101453.45;;;9.90;67.77
50682;BME280;36779;52.168;20.878;2023-05-18T06:55:50;101448.88;;;9.96;67.74
50682;BME280;36779;52.168;20.878;2023-05-18T06:58:20;101454.43;;;9.97;67.70
50682;BME280;36779;52.168;20.878;2023-05-18T07:00:50;101456.29;;;10.02;67.76
50682;BME280;36779;52.168;20.878;2023-05-18T07:03:23;101455.33;;;10.11;67.73
50682;BME280;36779;52.168;20.878;2023-05-18T07:05:53;101457.45;;;10.18;67.66
50682;BME280;36779;52.168;20.878;2023-05-18T07:08:23;101460.38;;;10.23;67.53
50682;BME280;36779;52.168;20.878;2023-05-18T07:10:52;101462.94;;;10.28;67.37
50682;BME280;36779;52.168;20.878;2023-05-18T07:13:22;101462.97;;;10.28;67.28
50682;BME280;36779;52.168;20.878;2023-05-18T07:15:51;101463.69;;;10.32;67.37
50682;BME280;36779;52.168;20.878;2023-05-18T07:18:20;101465.61;;;10.43;67.55
50682;BME280;36779;52.168;20.878;2023-05-18T07:20:49;101467.00;;;10.49;67.36
50682;BME280;36779;52.168;20.878;2023-05-18T07:23:17;101470.73;;;10.53;67.43
50682;BME280;36779;52.168;20.878;2023-05-18T07:25:46;101469.91;;;10.62;67.34
50682;BME280;36779;52.168;20.878;2023-05-18T07:28:16;101468.73;;;10.72;67.27
50682;BME280;36779;52.168;20.878;2023-05-18T07:30:45;101469.05;;;10.76;67.20
50682;BME280;36779;52.168;20.878;2023-05-18T07:33:18;101474.30;;;10.75;67.08
50682;BME280;36779;52.168;20.878;2023-05-18T07:35:48;101473.35;;;10.77;66.88
50682;BME280;36779;52.168;20.878;2023-05-18T07:38:16;101473.67;;;10.84;67.12
50682;BME280;36779;52.168;20.878;2023-05-18T07:40:45;101478.16;;;10.91;66.98
50682;BME280;36779;52.168;20.878;2023-05-18T07:43:14;101483.35;;;10.99;66.95
50682;BME280;36779;52.168;20.878;2023-05-18T07:45:43;101480.45;;;11.05;66.91
50682;BME280;36779;52.168;20.878;2023-05-18T07:48:12;101481.39;;;11.15;66.82
50682;BME280;36779;52.168;20.878;2023-05-18T07:50:42;101483.19;;;11.24;66.85
50682;BME280;36779;52.168;20.878;2023-05-18T07:53:12;101483.89;;;11.32;66.77
50682;BME280;36779;52.168;20.878;2023-05-18T07:55:41;101483.55;;;11.44;66.76
50682;BME280;36779;52.168;20.878;2023-05-18T07:58:10;101485.01;;;11.53;66.68
50682;BME280;36779;52.168;20.878;2023-05-18T08:00:40;101489.55;;;11.55;66.25
50682;BME280;36779;52.168;20.878;2023-05-18T08:03:09;101487.84;;;11.63;66.61
50682;BME280;36779;52.168;20.878;2023-05-18T08:05:43;101492.58;;;11.75;66.48
50682;BME280;36779;52.168;20.878;2023-05-18T08:08:12;101495.37;;;11.85;66.56
50682;BME280;36779;52.168;20.878;2023-05-18T08:10:42;101500.60;;;12.02;66.57
50682;BME280;36779;52.168;20.878;2023-05-18T08:13:11;101501.59;;;12.12;66.32
50682;BME280;36779;52.168;20.878;2023-05-18T08:15:43;101495.55;;;12.23;66.18
50682;BME280;36779;52.168;20.878;2023-05-18T08:18:14;101493.39;;;12.31;66.22
50682;BME280;36779;52.168;20.878;2023-05-18T08:20:42;101492.17;;;12.36;66.10
50682;BME280;36779;52.168;20.878;2023-05-18T08:23:12;101497.98;;;12.40;65.78
50682;BME280;36779;52.168;20.878;2023-05-18T08:25:41;101496.98;;;12.36;65.64
50682;BME280;36779;52.168;20.878;2023-05-18T08:28:11;101494.81;;;12.31;65.39
50682;BME280;36779;52.168;20.878;2023-05-18T08:30:41;101495.89;;;12.36;65.77
50682;BME280;36779;52.168;20.878;2023-05-18T08:33:09;101502.65;;;12.42;65.53
50682;BME280;36779;52.168;20.878;2023-05-18T08:35:40;101503.27;;;12.51;65.57
50682;BME280;36779;52.168;20.878;2023-05-18T08:38:09;101502.81;;;12.56;65.36
50682;BME280;36779;52.168;20.878;2023-05-18T08:40:42;101496.90;;;12.59;65.17
50682;BME280;36779;52.168;20.878;2023-05-18T08:43:20;101502.71;;;12.58;65.13
50682;BME280;36779;52.168;20.878;2023-05-18T08:45:57;101500.92;;;12.73;65.67
50682;BME280;36779;52.168;20.878;2023-05-18T08:48:31;101494.09;;;12.86;65.18
50682;BME280;36779;52.168;20.878;2023-05-18T08:51:02;101495.49;;;12.92;65.01
50682;BME280;36779;52.168;20.878;2023-05-18T08:53:34;101492.64;;;12.92;64.82
50682;BME280;36779;52.168;20.878;2023-05-18T08:56:07;101493.11;;;12.98;64.84
50682;BME280;36779;52.168;20.878;2023-05-18T08:58:45;101491.77;;;13.06;64.92
50682;BME280;36779;52.168;20.878;2023-05-18T09:01:15;101491.34;;;13.07;64.51
50682;BME280;36779;52.168;20.878;2023-05-18T09:03:46;101495.17;;;13.06;64.78
50682;BME280;36779;52.168;20.878;2023-05-18T09:06:17;101496.52;;;13.14;64.63
50682;BME280;36779;52.168;20.878;2023-05-18T09:08:48;101498.15;;;13.27;64.71
50682;BME280;36779;52.168;20.878;2023-05-18T09:11:23;101497.48;;;13.33;64.73
50682;BME280;36779;52.168;20.878;2023-05-18T09:13:52;101500.81;;;13.41;64.57
50682;BME280;36779;52.168;20.878;2023-05-18T09:16:21;101499.88;;;13.51;64.61
50682;BME280;36779;52.168;20.878;2023-05-18T09:18:51;101500.92;;;13.56;64.64
50682;BME280;36779;52.168;20.878;2023-05-18T09:21:20;101498.68;;;13.62;64.40
50682;BME280;36779;52.168;20.878;2023-05-18T09:23:49;101498.38;;;13.71;64.43
50682;BME280;36779;52.168;20.878;2023-05-18T09:26:20;101493.11;;;13.73;64.03
50682;BME280;36779;52.168;20.878;2023-05-18T09:28:52;101497.88;;;13.76;63.82
50682;BME280;36779;52.168;20.878;2023-05-18T09:31:22;101499.22;;;13.84;64.06
50682;BME280;36779;52.168;20.878;2023-05-18T09:33:52;101499.08;;;13.94;63.84
50682;BME280;36779;52.168;20.878;2023-05-18T09:36:25;101496.63;;;14.04;64.06
50682;BME280;36779;52.168;20.878;2023-05-18T09:38:55;101498.95;;;14.13;63.88
50682;BME280;36779;52.168;20.878;2023-05-18T09:41:26;101499.77;;;14.23;63.83
50682;BME280;36779;52.168;20.878;2023-05-18T09:43:55;101500.02;;;14.40;63.99
50682;BME280;36779;52.168;20.878;2023-05-18T09:46:24;101498.64;;;14.53;63.69
50682;BME280;36779;52.168;20.878;2023-05-18T09:48:54;101497.27;;;14.67;63.83
50682;BME280;36779;52.168;20.878;2023-05-18T09:51:25;101503.54;;;14.68;63.40
50682;BME280;36779;52.168;20.878;2023-05-18T09:53:55;101504.18;;;14.55;62.72
50682;BME280;36779;52.168;20.878;2023-05-18T09:56:25;101509.70;;;14.42;62.82
50682;BME280;36779;52.168;20.878;2023-05-18T09:58:54;101509.63;;;14.39;62.85
50682;BME280;36779;52.168;20.878;2023-05-18T10:01:24;101507.45;;;14.41;63.15
50682;BME280;36779;52.168;20.878;2023-05-18T10:04:02;101503.56;;;14.46;63.00
50682;BME280;36779;52.168;20.878;2023-05-18T10:06:32;101498.32;;;14.48;62.85
50682;BME280;36779;52.168;20.878;2023-05-18T10:09:02;101499.33;;;14.45;62.78
50682;BME280;36779;52.168;20.878;2023-05-18T10:11:43;101498.39;;;14.42;62.66
50682;BME280;36779;52.168;20.878;2023-05-18T10:14:14;101499.98;;;14.46;62.65
50682;BME280;36779;52.168;20.878;2023-05-18T10:16:44;101503.88;;;14.46;62.75
50682;BME280;36779;52.168;20.878;2023-05-18T10:19:14;101503.48;;;14.55;62.76
50682;BME280;36779;52.168;20.878;2023-05-18T10:21:44;101502.43;;;14.58;62.72
50682;BME280;36779;52.168;20.878;2023-05-18T10:24:17;101498.34;;;14.62;62.46
50682;BME280;36779;52.168;20.878;2023-05-18T10:26:49;101496.59;;;14.66;62.58
50682;BME280;36779;52.168;20.878;2023-05-18T10:29:22;101495.40;;;14.71;62.37
50682;BME280;36779;52.168;20.878;2023-05-18T10:31:53;101497.11;;;14.60;61.93
50682;BME280;36779;52.168;20.878;2023-05-18T10:34:24;101497.98;;;14.44;62.02
50682;BME280;36779;52.168;20.878;2023-05-18T10:36:55;101494.27;;;14.39;62.17
50682;BME280;36779;52.168;20.878;2023-05-18T10:39:26;101492.70;;;14.31;61.88
50682;BME280;36779;52.168;20.878;2023-05-18T10:41:57;101498.42;;;14.28;62.11
50682;BME280;36779;52.168;20.878;2023-05-18T10:44:26;101498.09;;;14.34;62.01
50682;BME280;36779;52.168;20.878;2023-05-18T10:46:57;101496.35;;;14.34;61.86
50682;BME280;36779;52.168;20.878;2023-05-18T10:49:26;101497.47;;;14.32;61.93
50682;BME280;36779;52.168;20.878;2023-05-18T10:51:57;101494.02;;;14.39;61.88
50682;BME280;36779;52.168;20.878;2023-05-18T10:54:27;101494.63;;;14.47;62.10
50682;BME280;36779;52.168;20.878;2023-05-18T10:56:57;101499.03;;;14.58;61.93
50682;BME280;36779;52.168;20.878;2023-05-18T10:59:28;101496.30;;;14.71;62.30
50682;BME280;36779;52.168;20.878;2023-05-18T11:01:58;101491.59;;;14.86;62.08
50682;BME280;36779;52.168;20.878;2023-05-18T11:04:31;101487.89;;;14.99;62.19
50682;BME280;36779;52.168;20.878;2023-05-18T11:07:00;101491.22;;;15.12;61.95
50682;BME280;36779;52.168;20.878;2023-05-18T11:09:30;101490.96;;;15.21;61.82
50682;BME280;36779;52.168;20.878;2023-05-18T11:12:00;101492.35;;;15.29;61.68
50682;BME280;36779;52.168;20.878;2023-05-18T11:14:30;101492.05;;;15.34;61.60
50682;BME280;36779;52.168;20.878;2023-05-18T11:17:19;101489.41;;;15.38;61.54
50682;BME280;36779;52.168;20.878;2023-05-18T11:20:15;101489.85;;;15.47;61.47
50682;BME280;36779;52.168;20.878;2023-05-18T11:22:51;101480.20;;;15.55;61.48
50682;BME280;36779;52.168;20.878;2023-05-18T11:25:43;101481.75;;;15.56;60.95
50682;BME280;36779;52.168;20.878;2023-05-18T11:28:15;101481.96;;;15.47;60.71
50682;BME280;36779;52.168;20.878;2023-05-18T11:30:47;101480.88;;;15.44;60.78
50682;BME280;36779;52.168;20.878;2023-05-18T11:33:22;101479.14;;;15.44;61.02
50682;BME280;36779;52.168;20.878;2023-05-18T11:36:05;101476.51;;;15.45;60.86
50682;BME280;36779;52.168;20.878;2023-05-18T11:38:51;101471.75;;;15.56;60.93
50682;BME280;36779;52.168;20.878;2023-05-18T11:41:28;101478.79;;;15.70;60.95
50682;BME280;36779;52.168;20.878;2023-05-18T11:44:13;101478.42;;;15.73;60.85
50682;BME280;36779;52.168;20.878;2023-05-18T11:46:59;101479.71;;;15.81;60.59
50682;BME280;36779;52.168;20.878;2023-05-18T11:49:36;101477.73;;;15.76;60.26
50682;BME280;36779;52.168;20.878;2023-05-18T11:52:07;101479.20;;;15.74;60.16
50682;BME280;36779;52.168;20.878;2023-05-18T11:54:42;101477.03;;;15.62;59.97
50682;BME280;36779;52.168;20.878;2023-05-18T11:57:15;101474.10;;;15.60;60.19
50682;BME280;36779;52.168;20.878;2023-05-18T11:59:47;101479.30;;;15.62;60.13
50682;BME280;36779;52.168;20.878;2023-05-18T12:02:25;101483.17;;;15.54;59.89
50682;BME280;36779;52.168;20.878;2023-05-18T12:04:57;101482.96;;;15.56;60.31
50682;BME280;36779;52.168;20.878;2023-05-18T12:07:30;101485.30;;;15.58;60.02
50682;BME280;36779;52.168;20.878;2023-05-18T12:10:05;101484.25;;;15.53;59.96
50682;BME280;36779;52.168;20.878;2023-05-18T12:12:35;101487.49;;;15.52;59.97
50682;BME280;36779;52.168;20.878;2023-05-18T12:15:08;101485.73;;;15.49;60.01
50682;BME280;36779;52.168;20.878;2023-05-18T12:17:42;101485.77;;;15.40;59.61
50682;BME280;36779;52.168;20.878;2023-05-18T12:20:15;101484.40;;;15.35;59.89
50682;BME280;36779;52.168;20.878;2023-05-18T12:22:48;101481.68;;;15.40;60.02
50682;BME280;36779;52.168;20.878;2023-05-18T12:25:19;101484.94;;;15.48;60.14
50682;BME280;36779;52.168;20.878;2023-05-18T12:27:50;101483.51;;;15.56;59.99
50682;BME280;36779;52.168;20.878;2023-05-18T12:30:21;101478.98;;;15.61;59.93
50682;BME280;36779;52.168;20.878;2023-05-18T12:33:03;101482.39;;;15.62;59.84
50682;BME280;36779;52.168;20.878;2023-05-18T12:35:34;101488.88;;;15.53;59.50
50682;BME280;36779;52.168;20.878;2023-05-18T12:38:05;101488.13;;;15.45;59.58
50682;BME280;36779;52.168;20.878;2023-05-18T12:40:36;101481.79;;;15.46;59.77
50682;BME280;36779;52.168;20.878;2023-05-18T12:43:16;101486.14;;;15.52;59.59
50682;BME280;36779;52.168;20.878;2023-05-18T12:45:45;101483.80;;;15.50;59.54
50682;BME280;36779;52.168;20.878;2023-05-18T12:48:15;101481.92;;;15.45;59.44
50682;BME280;36779;52.168;20.878;2023-05-18T12:50:49;101485.17;;;15.41;59.23
50682;BME280;36779;52.168;20.878;2023-05-18T12:53:18;101487.32;;;15.33;59.26
50682;BME280;36779;52.168;20.878;2023-05-18T12:55:56;101485.29;;;15.28;59.03
50682;BME280;36779;52.168;20.878;2023-05-18T12:58:27;101489.45;;;15.26;59.16
50682;BME280;36779;52.168;20.878;2023-05-18T13:00:56;101489.95;;;15.23;59.19
50682;BME280;36779;52.168;20.878;2023-05-18T13:03:25;101488.98;;;15.19;59.25
50682;BME280;36779;52.168;20.878;2023-05-18T13:06:04;101489.27;;;15.16;59.20
50682;BME280;36779;52.168;20.878;2023-05-18T13:08:35;101488.54;;;15.13;59.10